createdAt,value
2023-10-29T00:00:45.979Z,5.37
2023-10-29T00:01:57.573Z,3.53
2023-10-29T00:03:09.230Z,1.63
2023-10-29T00:04:20.844Z,4.40
2023-10-29T00:05:32.437Z,9.17
2023-10-29T00:06:44.042Z,3.87
2023-10-29T00:07:55.536Z,2.67
2023-10-29T00:09:07.412Z,4.40
2023-10-29T00:10:18.977Z,6.30
2023-10-29T00:11:30.572Z,7.87
2023-10-29T00:12:42.106Z,4.43
2023-10-29T00:13:53.678Z,5.77
2023-10-29T00:15:06.675Z,1.73
2023-10-29T00:16:18.913Z,3.50
2023-10-29T00:17:30.553Z,5.73
2023-10-29T00:18:42.314Z,3.47
2023-10-29T00:19:54.545Z,2.53
2023-10-29T00:21:06.794Z,3.17
2023-10-29T00:22:18.418Z,2.43
2023-10-29T00:23:29.923Z,5.37
2023-10-29T00:24:41.719Z,3.77
2023-10-29T00:25:53.202Z,2.97
2023-10-29T00:27:04.857Z,3.60
2023-10-29T00:28:16.392Z,6.47
2023-10-29T00:29:27.926Z,8.33
2023-10-29T00:30:40.022Z,4.00
2023-10-29T00:31:52.719Z,5.87
2023-10-29T00:33:04.352Z,3.42
2023-10-29T00:34:15.961Z,7.73
2023-10-29T00:35:27.556Z,2.67
2023-10-29T00:36:39.105Z,3.27
2023-10-29T00:37:50.649Z,3.33
2023-10-29T00:39:02.224Z,2.97
2023-10-29T00:40:13.815Z,4.60
2023-10-29T00:41:26.402Z,3.93
2023-10-29T00:42:38.015Z,3.53
2023-10-29T00:43:49.485Z,4.80
2023-10-29T00:45:00.989Z,2.83
2023-10-29T00:46:13.297Z,1.90
2023-10-29T00:47:24.877Z,3.97
2023-10-29T00:48:36.683Z,2.83
2023-10-29T00:49:49.600Z,4.40
2023-10-29T00:51:01.611Z,2.37
2023-10-29T00:52:14.721Z,8.10
2023-10-29T00:53:26.432Z,5.13
2023-10-29T00:54:38.050Z,1.95
2023-10-29T00:55:50.136Z,3.67
2023-10-29T00:57:01.711Z,4.40
2023-10-29T00:58:13.285Z,4.13
2023-10-29T00:59:26.421Z,4.83
2023-10-29T01:00:37.986Z,2.78
2023-10-29T01:01:49.581Z,2.53
2023-10-29T01:03:01.212Z,2.47
2023-10-29T01:04:12.722Z,5.00
2023-10-29T01:05:25.000Z,2.30
2023-10-29T01:06:39.951Z,4.40
2023-10-29T01:07:51.527Z,4.50
2023-10-29T01:09:03.159Z,5.27
2023-10-29T01:10:14.987Z,3.35
2023-10-29T01:11:26.581Z,3.97
2023-10-29T01:12:39.187Z,2.40
2023-10-29T01:13:51.194Z,4.13
2023-10-29T01:15:02.740Z,3.87
2023-10-29T01:16:14.280Z,3.15
2023-10-29T01:17:25.948Z,4.83
2023-10-29T01:18:37.506Z,3.40
2023-10-29T01:19:49.015Z,6.97
2023-10-29T01:21:00.573Z,4.67
2023-10-29T01:22:12.124Z,3.83
2023-10-29T01:23:24.343Z,6.63
2023-10-29T01:24:35.812Z,5.60
2023-10-29T01:25:48.826Z,2.67
2023-10-29T01:27:00.312Z,2.92
2023-10-29T01:28:11.856Z,11.70
2023-10-29T01:29:23.335Z,6.65
2023-10-29T01:30:34.869Z,2.20
2023-10-29T01:31:52.326Z,2.53
2023-10-29T01:33:03.958Z,6.00
2023-10-29T01:34:15.627Z,2.23
2023-10-29T01:35:27.114Z,3.40
2023-10-29T01:36:38.657Z,2.47
2023-10-29T01:37:51.592Z,5.30
2023-10-29T01:39:03.204Z,1.70
2023-10-29T01:40:14.789Z,4.47
2023-10-29T01:41:26.345Z,2.83
2023-10-29T01:42:37.907Z,5.67
2023-10-29T01:43:49.381Z,4.22
2023-10-29T01:45:00.933Z,4.20
2023-10-29T01:46:12.489Z,3.33
2023-10-29T01:47:24.030Z,3.10
2023-10-29T01:48:35.659Z,3.80
2023-10-29T01:49:47.219Z,5.33
2023-10-29T01:51:04.013Z,3.70
2023-10-29T01:52:15.665Z,5.70
2023-10-29T01:53:29.251Z,3.25
2023-10-29T01:54:40.888Z,2.30
2023-10-29T01:55:52.369Z,4.25
2023-10-29T01:57:03.980Z,3.13
2023-10-29T01:58:15.523Z,7.07
2023-10-29T01:59:27.059Z,2.80
2023-10-29T02:00:39.925Z,8.53
2023-10-29T02:01:51.716Z,2.17
2023-10-29T02:03:03.366Z,4.80
2023-10-29T02:04:15.015Z,3.03
2023-10-29T02:05:26.601Z,5.32
2023-10-29T02:06:40.979Z,3.55
2023-10-29T02:07:52.631Z,2.50
2023-10-29T02:09:04.541Z,6.03
2023-10-29T02:10:16.073Z,5.55
2023-10-29T02:11:27.625Z,3.33
2023-10-29T02:12:39.211Z,7.47
2023-10-29T02:13:50.696Z,5.82
2023-10-29T02:15:02.425Z,2.75
2023-10-29T02:16:13.958Z,2.30
2023-10-29T02:17:28.647Z,3.38
2023-10-29T02:18:40.412Z,3.63
2023-10-29T02:19:56.826Z,6.78
2023-10-29T02:21:08.433Z,4.25
2023-10-29T02:22:19.882Z,2.72
2023-10-29T02:23:31.434Z,6.93
2023-10-29T02:24:43.093Z,3.22
2023-10-29T02:25:54.718Z,3.92
2023-10-29T02:27:06.328Z,6.30
2023-10-29T02:28:17.847Z,7.40
2023-10-29T02:29:29.495Z,4.07
2023-10-29T02:30:41.026Z,3.42
2023-10-29T02:31:52.561Z,4.25
2023-10-29T02:33:04.241Z,3.33
2023-10-29T02:34:15.819Z,6.28
2023-10-29T02:35:27.424Z,2.25
2023-10-29T02:36:39.211Z,7.43
2023-10-29T02:37:50.779Z,4.43
2023-10-29T02:39:02.284Z,4.18
2023-10-29T02:40:14.028Z,3.15
2023-10-29T02:41:25.657Z,6.63
2023-10-29T02:42:37.115Z,6.25
2023-10-29T02:43:48.659Z,7.07
2023-10-29T02:45:00.254Z,4.57
2023-10-29T02:46:12.176Z,4.80
2023-10-29T02:47:23.855Z,4.93
2023-10-29T02:48:35.611Z,4.10
2023-10-29T02:49:47.366Z,3.13
2023-10-29T02:50:58.873Z,3.30
2023-10-29T02:52:10.478Z,6.78
2023-10-29T02:53:22.061Z,5.70
2023-10-29T02:54:33.946Z,4.78
2023-10-29T02:55:45.441Z,4.25
2023-10-29T02:56:56.976Z,6.15
2023-10-29T02:58:08.468Z,4.78
2023-10-29T02:59:21.659Z,5.20
2023-10-29T03:00:33.314Z,4.85
2023-10-29T03:01:44.847Z,3.55
2023-10-29T03:02:56.647Z,6.00
2023-10-29T03:04:08.545Z,3.88
2023-10-29T03:05:21.761Z,3.03
2023-10-29T03:06:33.901Z,5.78
2023-10-29T03:07:45.429Z,5.80
2023-10-29T03:08:56.924Z,3.67
2023-10-29T03:10:08.662Z,3.05
2023-10-29T03:11:20.208Z,4.53
2023-10-29T03:12:32.042Z,5.25
2023-10-29T03:13:43.516Z,2.53
2023-10-29T03:14:55.102Z,6.50
2023-10-29T03:16:06.870Z,3.13
2023-10-29T03:17:18.845Z,5.47
2023-10-29T03:18:30.794Z,6.97
2023-10-29T03:19:42.533Z,2.28
2023-10-29T03:20:54.071Z,5.05
2023-10-29T03:22:05.797Z,4.03
2023-10-29T03:23:17.317Z,5.43
2023-10-29T03:24:28.814Z,4.43
2023-10-29T03:25:40.853Z,4.82
2023-10-29T03:26:52.562Z,5.47
2023-10-29T03:28:04.137Z,3.90
2023-10-29T03:29:15.601Z,2.10
2023-10-29T03:30:27.153Z,4.70
2023-10-29T03:31:39.360Z,3.10
2023-10-29T03:32:50.888Z,4.75
2023-10-29T03:34:02.465Z,3.05
2023-10-29T03:35:14.176Z,3.03
2023-10-29T03:36:25.632Z,3.65
2023-10-29T03:37:37.323Z,4.63
2023-10-29T03:38:48.907Z,3.83
2023-10-29T03:40:00.536Z,5.53
2023-10-29T03:41:22.589Z,3.67
2023-10-29T03:42:34.252Z,2.28
2023-10-29T03:43:45.771Z,2.95
2023-10-29T03:44:57.270Z,5.43
2023-10-29T03:46:11.111Z,3.25
2023-10-29T03:47:22.705Z,4.53
2023-10-29T03:48:34.270Z,3.30
2023-10-29T03:49:45.819Z,2.05
2023-10-29T03:50:57.382Z,2.42
2023-10-29T03:52:08.939Z,3.05
2023-10-29T03:53:20.571Z,2.88
2023-10-29T03:54:34.483Z,6.30
2023-10-29T03:55:46.026Z,6.85
2023-10-29T03:56:57.542Z,4.05
2023-10-29T03:58:09.069Z,4.32
2023-10-29T03:59:20.581Z,5.03
2023-10-29T04:00:32.129Z,5.03
2023-10-29T04:01:43.669Z,4.35
2023-10-29T04:02:55.268Z,8.98
2023-10-29T04:04:07.123Z,3.40
2023-10-29T04:05:18.729Z,3.83
2023-10-29T04:06:30.986Z,5.80
2023-10-29T04:07:43.094Z,6.50
2023-10-29T04:08:54.680Z,2.50
2023-10-29T04:10:06.470Z,4.93
2023-10-29T04:11:17.943Z,3.42
2023-10-29T04:12:29.536Z,4.25
2023-10-29T04:13:41.293Z,2.53
2023-10-29T04:14:52.873Z,4.60
2023-10-29T04:16:04.777Z,4.65
2023-10-29T04:17:16.331Z,2.42
2023-10-29T04:18:32.803Z,4.38
2023-10-29T04:19:44.548Z,2.63
2023-10-29T04:20:56.116Z,3.08
2023-10-29T04:22:07.673Z,2.45
2023-10-29T04:23:19.200Z,4.05
2023-10-29T04:24:30.640Z,4.45
2023-10-29T04:25:44.561Z,5.60
2023-10-29T04:26:56.623Z,4.72
2023-10-29T04:28:08.206Z,8.15
2023-10-29T04:29:19.757Z,3.13
2023-10-29T04:30:31.403Z,5.38
2023-10-29T04:31:43.201Z,4.13
2023-10-29T04:32:54.761Z,4.85
2023-10-29T04:34:06.307Z,4.47
2023-10-29T04:35:17.966Z,4.53
2023-10-29T04:36:29.478Z,4.53
2023-10-29T04:37:41.051Z,8.15
2023-10-29T04:38:52.811Z,8.27
2023-10-29T04:40:05.286Z,3.97
2023-10-29T04:41:16.977Z,4.40
2023-10-29T04:42:28.493Z,3.45
2023-10-29T04:43:42.370Z,3.50
2023-10-29T04:44:53.973Z,3.00
2023-10-29T04:46:05.500Z,4.78
2023-10-29T04:47:18.111Z,4.65
2023-10-29T04:48:29.706Z,4.22
2023-10-29T04:49:41.357Z,4.07
2023-10-29T04:50:52.865Z,5.72
2023-10-29T04:52:04.544Z,10.07
2023-10-29T04:53:16.010Z,3.60
2023-10-29T04:54:27.598Z,5.20
2023-10-29T04:55:39.078Z,6.40
2023-10-29T04:56:51.206Z,10.02
2023-10-29T04:58:02.772Z,2.45
2023-10-29T04:59:14.379Z,4.05
2023-10-29T05:00:25.948Z,2.92
2023-10-29T05:01:37.511Z,3.72
2023-10-29T05:02:49.262Z,3.95
2023-10-29T05:04:00.927Z,2.63
2023-10-29T05:05:12.736Z,2.95
2023-10-29T05:06:24.274Z,3.25
2023-10-29T05:07:36.664Z,4.57
2023-10-29T05:08:48.383Z,5.15
2023-10-29T05:10:00.164Z,3.53
2023-10-29T05:11:11.723Z,4.78
2023-10-29T05:12:23.180Z,2.28
2023-10-29T05:13:34.720Z,5.25
2023-10-29T05:14:47.882Z,8.05
2023-10-29T05:15:59.541Z,5.05
2023-10-29T05:17:11.751Z,4.57
2023-10-29T05:18:23.460Z,3.30
2023-10-29T05:19:35.139Z,5.18
2023-10-29T05:20:46.683Z,5.45
2023-10-29T05:21:58.225Z,4.30
2023-10-29T05:23:09.820Z,4.63
2023-10-29T05:24:24.249Z,7.43
2023-10-29T05:25:37.371Z,5.20
2023-10-29T05:26:49.002Z,2.88
2023-10-29T05:28:00.511Z,4.82
2023-10-29T05:29:12.097Z,4.95
2023-10-29T05:30:24.161Z,7.25
2023-10-29T05:31:35.687Z,7.32
2023-10-29T05:32:47.285Z,4.97
2023-10-29T05:33:59.074Z,2.85
2023-10-29T05:35:10.733Z,10.50
2023-10-29T05:36:22.221Z,5.90
2023-10-29T05:37:33.731Z,13.32
2023-10-29T05:38:45.885Z,5.05
2023-10-29T05:39:57.365Z,4.55
2023-10-29T05:41:08.911Z,8.77
2023-10-29T05:42:20.449Z,6.03
2023-10-29T05:43:31.904Z,19.27
2023-10-29T05:44:43.446Z,11.18
2023-10-29T05:45:56.027Z,14.27
2023-10-29T05:47:07.598Z,6.03
2023-10-29T05:48:19.241Z,6.85
2023-10-29T05:49:31.069Z,6.10
2023-10-29T05:50:42.627Z,5.05
2023-10-29T05:51:54.153Z,6.45
2023-10-29T05:53:05.804Z,4.70
2023-10-29T05:54:17.357Z,2.88
2023-10-29T05:55:28.918Z,8.10
2023-10-29T05:56:40.483Z,4.78
2023-10-29T05:57:52.314Z,5.35
2023-10-29T05:59:03.887Z,2.85
2023-10-29T06:00:16.504Z,6.43
2023-10-29T06:01:28.064Z,3.42
2023-10-29T06:02:40.322Z,3.65
2023-10-29T06:03:52.107Z,6.07
2023-10-29T06:05:03.980Z,15.48
2023-10-29T06:06:15.690Z,23.50
2023-10-29T06:07:27.216Z,15.68
2023-10-29T06:08:38.756Z,19.70
2023-10-29T06:09:50.322Z,12.48
2023-10-29T06:11:01.869Z,10.82
2023-10-29T06:12:13.363Z,11.27
2023-10-29T06:13:24.882Z,9.55
2023-10-29T06:14:36.462Z,8.43
2023-10-29T06:15:48.112Z,6.53
2023-10-29T06:17:08.686Z,24.05
2023-10-29T06:18:23.707Z,51.72
2023-10-29T06:19:35.371Z,14.80
2023-10-29T06:20:46.920Z,32.33
2023-10-29T06:21:58.468Z,64.00
2023-10-29T06:23:10.331Z,51.80
2023-10-29T06:24:21.859Z,32.42
2023-10-29T06:25:33.476Z,10.95
2023-10-29T06:26:44.978Z,11.90
2023-10-29T06:27:56.520Z,6.53
2023-10-29T06:29:09.898Z,7.60
2023-10-29T06:30:22.553Z,10.80
2023-10-29T06:31:38.572Z,2.70
2023-10-29T06:32:50.236Z,5.38
2023-10-29T06:34:03.007Z,9.60
2023-10-29T06:35:14.664Z,9.13
2023-10-29T06:36:26.169Z,3.97
2023-10-29T06:37:37.697Z,7.40
2023-10-29T06:38:51.482Z,3.90
2023-10-29T06:40:04.419Z,7.35
2023-10-29T06:41:15.919Z,11.18
2023-10-29T06:42:27.382Z,9.05
2023-10-29T06:43:38.952Z,7.97
2023-10-29T06:44:50.686Z,7.55
2023-10-29T06:46:02.317Z,5.37
2023-10-29T06:47:15.727Z,10.37
2023-10-29T06:48:27.354Z,9.57
2023-10-29T06:49:38.897Z,6.80
2023-10-29T06:50:50.464Z,14.10
2023-10-29T06:52:01.988Z,6.97
2023-10-29T06:53:13.553Z,10.80
2023-10-29T06:54:25.809Z,4.97
2023-10-29T06:55:38.308Z,9.40
2023-10-29T06:56:49.967Z,5.97
2023-10-29T06:58:01.519Z,7.07
2023-10-29T06:59:13.258Z,9.93
2023-10-29T07:00:24.745Z,10.23
2023-10-29T07:01:36.253Z,6.33
2023-10-29T07:02:48.409Z,5.83
2023-10-29T07:04:00.249Z,8.43
2023-10-29T07:05:11.838Z,6.50
2023-10-29T07:06:24.163Z,4.30
2023-10-29T07:07:36.165Z,9.07
2023-10-29T07:08:49.013Z,4.23
2023-10-29T07:10:01.060Z,9.37
2023-10-29T07:11:12.666Z,4.47
2023-10-29T07:12:24.182Z,6.37
2023-10-29T07:13:36.306Z,5.13
2023-10-29T07:14:48.057Z,4.63
2023-10-29T07:16:00.540Z,8.27
2023-10-29T07:17:12.065Z,7.23
2023-10-29T07:18:24.381Z,6.80
2023-10-29T07:19:35.952Z,6.90
2023-10-29T07:20:47.487Z,6.43
2023-10-29T07:21:59.448Z,3.23
2023-10-29T07:23:11.149Z,3.83
2023-10-29T07:24:22.781Z,4.23
2023-10-29T07:25:35.322Z,3.50
2023-10-29T07:26:46.946Z,4.80
2023-10-29T07:27:58.443Z,7.93
2023-10-29T07:29:12.464Z,6.23
2023-10-29T07:30:23.953Z,9.07
2023-10-29T07:31:35.525Z,5.27
2023-10-29T07:32:47.157Z,3.20
2023-10-29T07:33:58.732Z,3.23
2023-10-29T07:35:11.705Z,8.20
2023-10-29T07:36:23.848Z,5.27
2023-10-29T07:37:35.365Z,3.63
2023-10-29T07:38:46.878Z,4.03
2023-10-29T07:39:58.464Z,6.50
2023-10-29T07:41:10.013Z,5.63
2023-10-29T07:42:22.289Z,7.17
2023-10-29T07:43:33.868Z,6.27
2023-10-29T07:44:45.402Z,2.87
2023-10-29T07:46:06.636Z,8.63
2023-10-29T07:47:18.199Z,4.17
2023-10-29T07:48:29.782Z,4.27
2023-10-29T07:49:41.285Z,4.60
2023-10-29T07:50:53.006Z,3.70
2023-10-29T07:52:05.911Z,6.70
2023-10-29T07:53:17.442Z,1.83
2023-10-29T07:54:28.999Z,4.50
2023-10-29T07:55:40.607Z,2.53
2023-10-29T07:56:52.132Z,4.73
2023-10-29T07:58:04.066Z,4.23
2023-10-29T07:59:15.694Z,2.67
2023-10-29T08:00:27.372Z,8.43
2023-10-29T08:01:38.856Z,4.40
2023-10-29T08:02:50.569Z,5.33
2023-10-29T08:04:02.246Z,1.43
2023-10-29T08:05:13.986Z,5.07
2023-10-29T08:06:25.590Z,7.80
2023-10-29T08:07:37.551Z,13.00
2023-10-29T08:08:49.074Z,3.60
2023-10-29T08:10:00.601Z,9.53
2023-10-29T08:11:19.414Z,3.97
2023-10-29T08:12:31.473Z,5.67
2023-10-29T08:13:43.201Z,11.37
2023-10-29T08:14:54.763Z,22.77
2023-10-29T08:16:06.415Z,13.20
2023-10-29T08:17:18.690Z,13.37
2023-10-29T08:18:30.288Z,11.93
2023-10-29T08:19:41.858Z,11.60
2023-10-29T08:20:53.362Z,7.83
2023-10-29T08:22:04.938Z,6.27
2023-10-29T08:23:16.511Z,8.63
2023-10-29T08:24:28.085Z,12.27
2023-10-29T08:25:39.625Z,6.27
2023-10-29T08:26:51.254Z,4.37
2023-10-29T08:28:02.955Z,3.60
2023-10-29T08:29:14.716Z,4.80
2023-10-29T08:30:26.181Z,6.00
2023-10-29T08:31:37.679Z,6.13
2023-10-29T08:32:49.263Z,5.63
2023-10-29T08:34:00.866Z,5.30
2023-10-29T08:35:12.446Z,2.77
2023-10-29T08:36:25.345Z,4.47
2023-10-29T08:37:37.215Z,10.73
2023-10-29T08:38:48.725Z,3.97
2023-10-29T08:40:00.381Z,5.13
2023-10-29T08:41:15.527Z,3.53
2023-10-29T08:42:31.253Z,5.83
2023-10-29T08:43:42.902Z,5.87
2023-10-29T08:44:58.174Z,5.47
2023-10-29T08:46:10.060Z,6.33
2023-10-29T08:47:21.667Z,3.73
2023-10-29T08:48:33.229Z,7.13
2023-10-29T08:49:44.761Z,7.13
2023-10-29T08:50:56.453Z,3.10
2023-10-29T08:52:08.109Z,2.43
2023-10-29T08:53:22.476Z,2.20
2023-10-29T08:54:34.012Z,4.63
2023-10-29T08:55:45.526Z,4.40
2023-10-29T08:56:57.688Z,4.00
2023-10-29T08:58:10.846Z,5.03
2023-10-29T08:59:22.526Z,3.77
2023-10-29T09:00:45.886Z,3.93
2023-10-29T09:01:58.608Z,6.30
2023-10-29T09:03:10.280Z,6.47
2023-10-29T09:04:23.654Z,5.77
2023-10-29T09:05:35.551Z,9.13
2023-10-29T09:06:47.121Z,5.47
2023-10-29T09:07:58.594Z,3.47
2023-10-29T09:09:10.157Z,3.77
2023-10-29T09:10:21.983Z,4.13
2023-10-29T09:11:33.586Z,5.40
2023-10-29T09:12:45.080Z,5.40
2023-10-29T09:13:56.620Z,4.40
2023-10-29T09:15:08.405Z,5.33
2023-10-29T09:16:20.022Z,6.70
2023-10-29T09:17:31.752Z,5.73
2023-10-29T09:18:43.340Z,6.13
2023-10-29T09:19:54.866Z,3.57
2023-10-29T09:21:06.392Z,4.23
2023-10-29T09:22:18.369Z,6.10
2023-10-29T09:23:30.595Z,4.27
2023-10-29T09:24:42.174Z,6.30
2023-10-29T09:25:53.635Z,4.13
2023-10-29T09:27:05.816Z,12.13
2023-10-29T09:28:17.481Z,5.90
2023-10-29T09:29:32.263Z,8.00
2023-10-29T09:30:43.830Z,6.67
2023-10-29T09:31:55.327Z,1.57
2023-10-29T09:33:09.201Z,4.27
2023-10-29T09:34:20.794Z,4.57
2023-10-29T09:35:33.376Z,5.73
2023-10-29T09:36:45.062Z,3.27
2023-10-29T09:37:56.588Z,5.13
2023-10-29T09:39:09.376Z,2.60
2023-10-29T09:40:21.155Z,5.30
2023-10-29T09:41:32.879Z,5.33
2023-10-29T09:42:49.035Z,5.93
2023-10-29T09:44:01.258Z,8.83
2023-10-29T09:45:13.790Z,17.63
2023-10-29T09:46:25.397Z,7.63
2023-10-29T09:47:37.218Z,9.13
2023-10-29T09:48:49.454Z,2.33
2023-10-29T09:50:02.388Z,4.77
2023-10-29T09:51:15.470Z,3.97
2023-10-29T09:52:30.099Z,7.60
2023-10-29T09:53:41.632Z,2.80
2023-10-29T09:54:53.470Z,10.57
2023-10-29T09:56:14.285Z,7.90
2023-10-29T09:57:25.757Z,2.93
2023-10-29T09:58:37.591Z,5.63
2023-10-29T09:59:49.220Z,3.07
2023-10-29T10:01:02.926Z,5.67
2023-10-29T10:02:15.422Z,3.47
2023-10-29T10:03:29.050Z,4.93
2023-10-29T10:04:41.088Z,8.50
2023-10-29T10:05:53.520Z,4.43
2023-10-29T10:07:07.106Z,5.87
2023-10-29T10:08:24.012Z,2.00
2023-10-29T10:09:54.251Z,3.73
2023-10-29T10:11:06.658Z,3.17
2023-10-29T10:12:18.868Z,2.43
2023-10-29T10:13:39.876Z,6.67
2023-10-29T10:14:52.094Z,4.27
2023-10-29T10:16:11.519Z,6.77
2023-10-29T10:17:23.251Z,3.47
2023-10-29T10:18:53.297Z,2.50
2023-10-29T10:20:07.307Z,3.50
2023-10-29T10:21:25.514Z,3.57
2023-10-29T10:22:37.228Z,7.17
2023-10-29T10:23:53.067Z,5.93
2023-10-29T10:25:07.038Z,5.47
2023-10-29T10:26:28.056Z,3.17
2023-10-29T10:27:51.149Z,4.47
2023-10-29T10:29:04.161Z,12.40
2023-10-29T10:30:28.481Z,4.07
2023-10-29T10:31:40.130Z,5.33
2023-10-29T10:32:52.206Z,3.17
2023-10-29T10:34:10.701Z,6.10
2023-10-29T10:35:22.761Z,3.10
2023-10-29T10:36:34.465Z,4.23
2023-10-29T10:37:55.753Z,13.13
2023-10-29T10:39:07.860Z,6.83
2023-10-29T10:40:24.081Z,3.87
2023-10-29T10:41:45.246Z,2.00
2023-10-29T10:42:59.814Z,6.27
2023-10-29T10:44:15.426Z,4.17
2023-10-29T10:45:27.883Z,3.30
2023-10-29T10:46:42.676Z,2.73
2023-10-29T10:47:56.356Z,4.27
2023-10-29T10:49:10.708Z,1.97
2023-10-29T10:50:24.932Z,3.47
2023-10-29T10:51:39.038Z,2.93
2023-10-29T10:52:51.211Z,3.37
2023-10-29T10:54:03.826Z,2.10
2023-10-29T10:55:31.433Z,1.93
2023-10-29T10:56:48.040Z,7.37
2023-10-29T10:58:00.830Z,2.83
2023-10-29T10:59:12.370Z,6.57
2023-10-29T11:00:23.913Z,7.67
2023-10-29T11:01:37.879Z,4.73
2023-10-29T11:02:49.941Z,2.57
2023-10-29T11:04:03.195Z,2.70
2023-10-29T11:05:17.104Z,1.77
2023-10-29T11:06:28.890Z,3.20
2023-10-29T11:07:41.573Z,5.63
2023-10-29T11:08:53.946Z,2.17
2023-10-29T11:10:06.455Z,1.10
2023-10-29T11:11:22.050Z,2.53
2023-10-29T11:12:36.071Z,3.07
2023-10-29T11:13:48.431Z,6.60
2023-10-29T11:15:14.812Z,6.40
2023-10-29T11:16:31.620Z,3.63
2023-10-29T11:18:03.309Z,4.10
2023-10-29T11:19:33.776Z,2.77
2023-10-29T11:20:55.597Z,5.03
2023-10-29T11:22:20.193Z,7.17
2023-10-29T11:23:35.192Z,3.13
2023-10-29T11:25:10.810Z,3.00
2023-10-29T11:26:23.321Z,3.73
2023-10-29T11:27:38.713Z,4.57
2023-10-29T11:28:50.990Z,3.43
2023-10-29T11:30:14.985Z,3.40
2023-10-29T11:31:26.876Z,5.27
2023-10-29T11:32:38.786Z,5.27
2023-10-29T11:33:56.322Z,3.03
2023-10-29T11:35:26.255Z,3.13
2023-10-29T11:37:03.206Z,6.23
2023-10-29T11:38:32.733Z,3.43
2023-10-29T11:39:45.075Z,1.93
2023-10-29T11:40:57.306Z,3.07
2023-10-29T11:42:24.822Z,4.53
2023-10-29T11:43:36.501Z,2.93
2023-10-29T11:44:48.191Z,5.50
2023-10-29T11:46:01.025Z,5.17
2023-10-29T11:47:13.408Z,4.80
2023-10-29T11:48:25.788Z,1.43
2023-10-29T11:49:43.227Z,3.40
2023-10-29T11:51:07.461Z,5.70
2023-10-29T11:52:19.237Z,3.30
2023-10-29T11:53:37.936Z,4.90
2023-10-29T11:54:50.043Z,5.30
2023-10-29T11:56:05.923Z,4.67
2023-10-29T11:57:17.569Z,4.43
2023-10-29T11:58:29.251Z,6.47
2023-10-29T11:59:54.660Z,0.73
2023-10-29T12:01:08.067Z,1.90
2023-10-29T12:02:20.229Z,1.70
2023-10-29T12:03:32.259Z,3.53
2023-10-29T12:04:44.009Z,2.40
2023-10-29T12:05:57.413Z,3.43
2023-10-29T12:07:09.000Z,3.20
2023-10-29T12:08:20.994Z,3.43
2023-10-29T12:09:41.187Z,5.60
2023-10-29T12:10:54.778Z,5.50
2023-10-29T12:12:10.292Z,5.00
2023-10-29T12:13:22.500Z,1.77
2023-10-29T12:14:41.336Z,3.10
2023-10-29T12:15:57.512Z,3.00
2023-10-29T12:17:09.575Z,1.30
2023-10-29T12:18:21.877Z,4.33
2023-10-29T12:19:37.215Z,2.13
2023-10-29T12:20:49.601Z,2.33
2023-10-29T12:22:01.175Z,2.90
2023-10-29T12:23:12.728Z,2.43
2023-10-29T12:24:24.320Z,3.80
2023-10-29T12:25:35.951Z,1.97
2023-10-29T12:26:47.780Z,3.90
2023-10-29T12:27:59.735Z,10.03
2023-10-29T12:29:11.321Z,4.40
2023-10-29T12:30:42.756Z,9.97
2023-10-29T12:31:54.439Z,7.77
2023-10-29T12:33:15.650Z,7.17
2023-10-29T12:34:28.884Z,1.63
2023-10-29T12:35:40.496Z,5.77
2023-10-29T12:36:54.518Z,4.30
2023-10-29T12:38:06.300Z,8.17
2023-10-29T12:39:17.917Z,2.27
2023-10-29T12:40:29.585Z,1.40
2023-10-29T12:41:41.163Z,1.93
2023-10-29T12:42:53.293Z,2.30
2023-10-29T12:44:04.964Z,3.93
2023-10-29T12:45:26.122Z,2.97
2023-10-29T12:46:47.861Z,4.40
2023-10-29T12:48:10.076Z,2.83
2023-10-29T12:49:34.874Z,4.97
2023-10-29T12:50:46.439Z,3.50
2023-10-29T12:51:58.125Z,2.50
2023-10-29T12:53:09.904Z,2.07
2023-10-29T12:54:24.834Z,8.03
2023-10-29T12:55:43.792Z,2.83
2023-10-29T12:56:59.692Z,4.83
2023-10-29T12:58:12.325Z,3.13
2023-10-29T12:59:27.881Z,4.73
2023-10-29T13:00:39.593Z,2.63
2023-10-29T13:01:55.051Z,3.53
2023-10-29T13:03:06.751Z,3.20
2023-10-29T13:04:18.574Z,4.43
2023-10-29T13:05:30.264Z,4.43
2023-10-29T13:06:43.674Z,3.07
2023-10-29T13:07:58.477Z,2.63
2023-10-29T13:09:10.692Z,2.57
2023-10-29T13:10:22.461Z,3.50
2023-10-29T13:11:34.190Z,9.97
2023-10-29T13:12:45.869Z,3.80
2023-10-29T13:14:08.257Z,4.83
2023-10-29T13:15:20.894Z,2.57
2023-10-29T13:16:32.631Z,4.77
2023-10-29T13:17:44.456Z,4.43
2023-10-29T13:18:56.152Z,4.20
2023-10-29T13:20:09.476Z,2.97
2023-10-29T13:21:21.976Z,2.83
2023-10-29T13:22:33.703Z,4.33
2023-10-29T13:23:45.185Z,1.63
2023-10-29T13:25:00.180Z,6.73
2023-10-29T13:26:12.773Z,2.07
2023-10-29T13:27:24.359Z,4.97
2023-10-29T13:28:35.961Z,1.83
2023-10-29T13:29:47.539Z,4.40
2023-10-29T13:30:59.197Z,2.10
2023-10-29T13:32:10.830Z,3.30
2023-10-29T13:33:23.062Z,5.20
2023-10-29T13:34:34.867Z,3.80
2023-10-29T13:35:46.531Z,5.37
2023-10-29T13:36:58.235Z,4.00
2023-10-29T13:38:10.571Z,1.60
2023-10-29T13:39:22.265Z,3.27
2023-10-29T13:40:37.210Z,2.40
2023-10-29T13:41:49.728Z,2.00
2023-10-29T13:43:01.602Z,1.93
2023-10-29T13:44:17.412Z,1.90
2023-10-29T13:45:29.599Z,1.70
2023-10-29T13:46:41.321Z,3.43
2023-10-29T13:47:53.044Z,2.00
2023-10-29T13:49:05.176Z,5.93
2023-10-29T13:50:16.859Z,1.03
2023-10-29T13:51:28.648Z,1.40
2023-10-29T13:52:40.266Z,1.17
2023-10-29T13:53:51.845Z,3.43
2023-10-29T13:55:03.584Z,2.13
2023-10-29T13:56:15.473Z,4.63
2023-10-29T13:57:27.121Z,1.47
2023-10-29T13:58:39.287Z,1.93
2023-10-29T13:59:51.138Z,4.57
2023-10-29T14:01:03.223Z,1.10
2023-10-29T14:02:14.922Z,2.90
2023-10-29T14:03:26.591Z,6.07
2023-10-29T14:04:38.297Z,4.47
2023-10-29T14:05:49.907Z,6.10
2023-10-29T14:07:02.382Z,2.77
2023-10-29T14:08:14.008Z,4.10
2023-10-29T14:09:26.755Z,6.23
2023-10-29T14:10:39.317Z,5.23
2023-10-29T14:11:50.920Z,2.50
2023-10-29T14:13:02.528Z,2.67
2023-10-29T14:14:14.155Z,6.23
2023-10-29T14:15:25.876Z,5.33
2023-10-29T14:16:38.500Z,4.83
2023-10-29T14:17:50.279Z,1.77
2023-10-29T14:19:02.242Z,5.87
2023-10-29T14:20:14.190Z,2.77
2023-10-29T14:21:25.780Z,2.87
2023-10-29T14:22:38.217Z,2.87
2023-10-29T14:23:50.492Z,3.87
2023-10-29T14:25:03.386Z,5.07
2023-10-29T14:26:15.053Z,2.83
2023-10-29T14:27:26.692Z,5.07
2023-10-29T14:28:38.203Z,6.67
2023-10-29T14:29:50.070Z,2.83
2023-10-29T14:31:01.840Z,6.13
2023-10-29T14:32:13.704Z,3.57
2023-10-29T14:33:25.235Z,3.83
2023-10-29T14:34:37.653Z,4.10
2023-10-29T14:35:56.788Z,2.43
2023-10-29T14:37:08.417Z,7.30
2023-10-29T14:38:21.630Z,3.80
2023-10-29T14:39:33.305Z,6.50
2023-10-29T14:40:44.953Z,2.97
2023-10-29T14:41:56.614Z,4.27
2023-10-29T14:43:21.334Z,6.47
2023-10-29T14:44:33.683Z,3.10
2023-10-29T14:45:47.229Z,4.23
2023-10-29T14:46:59.302Z,8.87
2023-10-29T14:48:11.038Z,2.30
2023-10-29T14:49:22.752Z,5.77
2023-10-29T14:50:35.864Z,6.60
2023-10-29T14:51:47.494Z,4.47
2023-10-29T14:52:59.100Z,4.67
2023-10-29T14:54:10.839Z,1.13
2023-10-29T14:55:22.427Z,4.23
2023-10-29T14:56:34.045Z,3.23
2023-10-29T14:57:45.879Z,4.67
2023-10-29T14:58:57.480Z,2.50
2023-10-29T15:00:11.898Z,7.87
2023-10-29T15:01:25.810Z,6.30
2023-10-29T15:02:37.764Z,2.83
2023-10-29T15:03:49.675Z,6.80
2023-10-29T15:05:01.348Z,5.63
2023-10-29T15:06:13.147Z,1.87
2023-10-29T15:07:25.166Z,7.30
2023-10-29T15:08:37.271Z,1.10
2023-10-29T15:09:48.842Z,5.83
2023-10-29T15:11:00.619Z,4.00
2023-10-29T15:12:14.852Z,9.90
2023-10-29T15:13:26.504Z,2.70
2023-10-29T15:14:39.317Z,5.17
2023-10-29T15:15:51.038Z,1.63
2023-10-29T15:17:03.128Z,5.13
2023-10-29T15:18:14.731Z,3.80
2023-10-29T15:19:36.693Z,1.50
2023-10-29T15:21:00.453Z,8.67
2023-10-29T15:22:12.728Z,5.20
2023-10-29T15:23:24.380Z,4.37
2023-10-29T15:24:36.002Z,4.37
2023-10-29T15:25:47.560Z,2.13
2023-10-29T15:26:59.111Z,5.60
2023-10-29T15:28:11.368Z,15.70
2023-10-29T15:29:23.074Z,3.00
2023-10-29T15:30:34.804Z,12.87
2023-10-29T15:31:46.365Z,10.43
2023-10-29T15:32:58.159Z,4.10
2023-10-29T15:34:32.940Z,4.37
2023-10-29T15:35:44.529Z,2.33
2023-10-29T15:36:56.230Z,2.70
2023-10-29T15:38:08.008Z,4.60
2023-10-29T15:39:22.830Z,2.63
2023-10-29T15:40:35.336Z,3.97
2023-10-29T15:41:47.077Z,4.67
2023-10-29T15:42:58.708Z,3.73
2023-10-29T15:44:10.448Z,3.67
2023-10-29T15:45:22.130Z,3.20
2023-10-29T15:46:36.417Z,3.23
2023-10-29T15:47:48.138Z,7.07
2023-10-29T15:49:00.305Z,9.07
2023-10-29T15:50:13.867Z,8.73
2023-10-29T15:51:27.066Z,5.63
2023-10-29T15:52:38.710Z,9.43
2023-10-29T15:53:50.539Z,9.40
2023-10-29T15:55:02.270Z,9.30
2023-10-29T15:56:14.161Z,9.67
2023-10-29T15:57:25.869Z,12.77
2023-10-29T15:58:37.594Z,8.47
2023-10-29T15:59:49.949Z,12.70
2023-10-29T16:01:01.726Z,9.20
2023-10-29T16:02:13.449Z,6.17
2023-10-29T16:03:25.359Z,10.07
2023-10-29T16:04:40.214Z,17.13
2023-10-29T16:05:52.070Z,18.93
2023-10-29T16:07:04.563Z,14.23